Time;durP1;ratioP1;P1;durP2;ratioP2;P2;SDS_P1;SDS_P2;PMS_P1;PMS_P2;Temp;Humidity;BMP_temperature;BMP_pressure;BME280_temperature;BME280_humidity;BME280_pressure;Samples;Min_cycle;Max_cycle;Signal;HPM_P1;HPM_P2
2023/01/04 00:01:02;;;;;;;16.43;9.30;;;5.30;90.10;;;;;;5022079;28;20781;-73
2023/01/04 00:03:29;;;;;;;17.77;9.37;;;5.30;90.30;;;;;;5029176;28;20216;-76
2023/01/04 00:05:57;;;;;;;18.27;10.20;;;5.40;90.30;;;;;;5023698;28;20990;-76
2023/01/04 00:08:22;;;;;;;17.53;9.13;;;5.40;90.30;;;;;;5028316;28;20422;-74
2023/01/04 00:10:48;;;;;;;17.53;9.93;;;5.40;90.20;;;;;;5018189;28;20415;-76
2023/01/04 00:13:13;;;;;;;16.13;9.10;;;5.40;90.20;;;;;;5027335;28;20192;-73
2023/01/04 00:15:39;;;;;;;19.77;10.87;;;5.30;90.10;;;;;;5018780;28;20259;-76
2023/01/04 00:18:04;;;;;;;15.90;9.10;;;5.30;90.20;;;;;;5028084;28;20278;-76
2023/01/04 00:20:30;;;;;;;15.17;8.70;;;5.40;90.20;;;;;;5028148;28;20648;-75
2023/01/04 00:22:57;;;;;;;18.23;9.80;;;5.40;90.20;;;;;;5026210;28;20692;-76
2023/01/04 00:25:23;;;;;;;13.50;8.80;;;5.40;90.20;;;;;;5024291;28;20240;-75
2023/01/04 00:27:50;;;;;;;14.33;9.50;;;5.40;90.10;;;;;;5025214;28;20447;-74
2023/01/04 00:30:16;;;;;;;19.20;9.57;;;5.40;90.00;;;;;;5023906;28;20455;-76
2023/01/04 00:32:42;;;;;;;16.80;9.40;;;5.30;90.00;;;;;;5027661;28;20416;-76
2023/01/04 00:35:08;;;;;;;17.73;9.80;;;5.30;90.10;;;;;;5022785;28;20478;-76
2023/01/04 00:37:34;;;;;;;15.07;8.17;;;5.40;90.00;;;;;;5025957;28;20458;-76
2023/01/04 00:39:59;;;;;;;15.60;9.00;;;5.30;90.00;;;;;;5025341;28;20428;-75
2023/01/04 00:42:25;;;;;;;18.50;9.17;;;5.30;90.00;;;;;;5026315;28;20203;-73
2023/01/04 00:44:51;;;;;;;20.10;9.27;;;5.30;89.90;;;;;;5022258;28;20235;-75
2023/01/04 00:47:16;;;;;;;18.43;9.17;;;5.20;89.90;;;;;;5027940;28;20204;-75
2023/01/04 00:49:42;;;;;;;20.70;9.20;;;5.20;90.10;;;;;;5021428;28;20185;-74
2023/01/04 00:52:08;;;;;;;15.13;7.97;;;5.20;90.20;;;;;;5029415;28;20213;-75
2023/01/04 00:54:34;;;;;;;13.03;7.83;;;5.20;90.20;;;;;;5028804;28;20217;-75
2023/01/04 00:57:00;;;;;;;13.10;7.50;;;5.20;90.20;;;;;;5028183;28;20447;-74
2023/01/04 00:59:26;;;;;;;15.47;8.87;;;5.30;90.10;;;;;;5033602;28;20739;-74
2023/01/04 01:01:52;;;;;;;13.47;7.57;;;5.30;90.00;;;;;;5025962;28;20607;-74
2023/01/04 01:04:21;;;;;;;16.17;8.60;;;5.30;89.70;;;;;;5030250;28;20467;-76
2023/01/04 01:06:48;;;;;;;15.80;8.10;;;5.30;89.60;;;;;;5029864;28;20455;-74
2023/01/04 01:09:14;;;;;;;15.27;7.60;;;5.30;89.60;;;;;;5031584;28;20416;-75
2023/01/04 01:11:40;;;;;;;15.03;8.47;;;5.30;89.30;;;;;;5031570;28;20434;-75
2023/01/04 01:14:07;;;;;;;13.87;7.90;;;5.30;89.20;;;;;;5027720;28;20437;-74
2023/01/04 01:16:33;;;;;;;14.83;8.17;;;5.40;89.20;;;;;;5025018;28;20447;-74
2023/01/04 01:18:59;;;;;;;17.13;9.10;;;5.30;89.20;;;;;;5032019;28;20584;-76
2023/01/04 01:21:27;;;;;;;15.93;8.60;;;5.30;89.20;;;;;;5030147;28;20526;-74
2023/01/04 01:23:54;;;;;;;19.87;9.43;;;5.30;89.20;;;;;;5029431;28;20243;-75
2023/01/04 01:26:23;;;;;;;13.67;8.20;;;5.30;89.00;;;;;;5027681;28;20491;-74
2023/01/04 01:28:49;;;;;;;14.17;8.73;;;5.30;89.20;;;;;;5031169;28;20420;-74
2023/01/04 01:31:23;;;;;;;19.10;8.40;;;5.30;89.00;;;;;;5033021;28;20431;-76
2023/01/04 01:33:51;;;;;;;12.60;7.97;;;5.20;88.70;;;;;;5032051;28;20420;-75
2023/01/04 01:36:18;;;;;;;14.90;7.70;;;5.20;89.00;;;;;;5030636;28;20471;-74
2023/01/04 01:38:44;;;;;;;15.30;7.63;;;5.20;89.00;;;;;;5029392;28;20427;-76
2023/01/04 01:41:32;;;;;;;10.83;6.60;;;5.20;88.70;;;;;;5026304;28;20425;-75
2023/01/04 01:43:59;;;;;;;13.70;7.53;;;5.10;88.70;;;;;;5028343;28;20455;-77
2023/01/04 01:46:47;;;;;;;15.20;8.37;;;5.10;88.90;;;;;;5023379;28;20539;-75
2023/01/04 01:49:28;;;;;;;14.57;7.73;;;5.10;88.90;;;;;;5025032;28;20430;-76
2023/01/04 01:51:57;;;;;;;14.80;7.30;;;5.10;88.70;;;;;;5034352;28;20431;-75
2023/01/04 01:54:28;;;;;;;14.93;8.03;;;5.00;88.70;;;;;;5029003;28;20490;-75
2023/01/04 01:56:56;;;;;;;13.53;7.07;;;5.00;88.90;;;;;;5028237;28;21032;-74
2023/01/04 01:59:23;;;;;;;14.73;7.37;;;5.00;88.90;;;;;;5033476;28;20432;-74
2023/01/04 02:01:48;;;;;;;13.10;7.07;;;5.00;89.00;;;;;;5034307;28;20459;-76
2023/01/04 02:04:15;;;;;;;12.00;7.30;;;5.00;89.00;;;;;;5031186;28;20997;-76
2023/01/04 02:06:46;;;;;;;13.50;6.97;;;5.10;89.00;;;;;;5029788;28;20185;-74
2023/01/04 02:09:12;;;;;;;14.07;7.93;;;5.00;88.90;;;;;;5030551;28;20923;-76
2023/01/04 02:11:38;;;;;;;13.87;7.80;;;5.00;88.90;;;;;;5032783;28;20503;-75
2023/01/04 02:17:13;;;;;;;12.80;6.70;;;4.90;89.00;;;;;;5026878;28;20200;-77
2023/01/04 02:20:10;;;;;;;11.60;6.90;;;5.00;89.20;;;;;;5027415;28;20424;-75
2023/01/04 02:22:57;;;;;;;14.73;7.50;;;5.00;89.20;;;;;;5008986;28;20914;-75
2023/01/04 02:25:48;;;;;;;14.83;8.13;;;4.90;89.20;;;;;;5027330;28;20468;-74
2023/01/04 02:28:31;;;;;;;17.50;7.33;;;4.80;89.30;;;;;;5024785;28;20417;-76
2023/01/04 02:31:19;;;;;;;13.60;6.37;;;4.80;89.30;;;;;;5026564;28;20826;-73
2023/01/04 02:34:18;;;;;;;14.13;6.93;;;4.80;89.60;;;;;;5029158;28;20400;-75
2023/01/04 02:37:04;;;;;;;13.80;5.93;;;4.80;89.70;;;;;;5032171;28;20416;-74
2023/01/04 02:40:06;;;;;;;12.47;7.17;;;4.80;89.70;;;;;;5031577;28;20419;-75
2023/01/04 02:45:50;;;;;;;8.93;5.50;;;4.90;89.90;;;;;;5023522;28;20490;-74
2023/01/04 02:51:00;;;;;;;9.23;5.70;;;5.00;90.00;;;;;;5026659;28;20412;-75
2023/01/04 02:53:30;;;;;;;12.20;5.90;;;5.00;90.00;;;;;;5030240;28;20420;-75
2023/01/04 02:56:34;;;;;;;13.43;6.37;;;5.00;90.10;;;;;;5023532;28;20460;-76
2023/01/04 02:59:27;;;;;;;12.83;5.70;;;5.10;90.10;;;;;;5032797;28;20438;-75
2023/01/04 03:08:09;;;;;;;8.60;6.03;;;5.20;89.60;;;;;;5049291;28;20415;-76
2023/01/04 03:10:46;;;;;;;8.50;5.67;;;5.20;89.50;;;;;;5046516;28;20423;-74
2023/01/04 03:13:25;;;;;;;11.47;5.97;;;5.20;89.30;;;;;;5048095;28;20423;-75
2023/01/04 03:15:54;;;;;;;8.97;5.03;;;5.20;89.20;;;;;;5046567;28;20455;-73
2023/01/04 03:18:42;;;;;;;9.87;5.17;;;5.20;89.20;;;;;;5049362;28;20423;-73
2023/01/04 03:21:10;;;;;;;12.60;5.70;;;5.30;89.00;;;;;;5028958;28;20515;-74
2023/01/04 03:36:19;;;;;;;7.73;4.57;;;5.40;87.70;;;;;;5026938;28;20462;-75
2023/01/04 03:50:57;;;;;;;7.73;4.40;;;5.50;86.80;;;;;;5021579;28;21174;-75
2023/01/04 03:53:25;;;;;;;8.60;5.07;;;5.40;86.50;;;;;;5026114;28;20428;-73
2023/01/04 03:55:53;;;;;;;7.20;4.10;;;5.40;86.50;;;;;;5024706;28;20537;-74
2023/01/04 03:58:19;;;;;;;6.70;4.50;;;5.40;86.50;;;;;;5036511;28;20535;-74
2023/01/04 04:00:46;;;;;;;6.70;3.60;;;5.40;86.50;;;;;;5029625;28;20530;-75
2023/01/04 04:03:11;;;;;;;7.03;4.00;;;5.50;86.30;;;;;;5030997;28;20473;-75
2023/01/04 04:08:27;;;;;;;8.17;3.73;;;5.60;85.90;;;;;;5026285;28;20477;-77
2023/01/04 04:10:56;;;;;;;6.33;3.70;;;5.70;85.60;;;;;;5030869;28;20420;-74
2023/01/04 04:13:22;;;;;;;5.23;3.40;;;5.70;85.00;;;;;;5029776;28;20420;-75
2023/01/04 04:15:48;;;;;;;4.70;3.50;;;5.80;84.90;;;;;;5025077;28;20451;-75
2023/01/04 04:18:13;;;;;;;5.63;3.27;;;5.90;84.60;;;;;;5027887;28;21004;-75
2023/01/04 04:20:39;;;;;;;7.80;3.90;;;5.90;84.40;;;;;;5031376;28;20420;-76
2023/01/04 04:23:04;;;;;;;6.40;3.10;;;6.00;84.10;;;;;;5036957;28;20181;-74
2023/01/04 04:25:30;;;;;;;4.40;2.70;;;6.00;83.80;;;;;;5049535;28;20189;-73
2023/01/04 04:27:56;;;;;;;4.40;2.90;;;6.10;83.70;;;;;;5047505;28;20193;-76
2023/01/04 04:30:21;;;;;;;4.77;2.80;;;6.10;83.60;;;;;;5046197;28;20189;-75
2023/01/04 04:32:47;;;;;;;5.50;3.10;;;6.20;83.40;;;;;;5047002;28;20195;-75
2023/01/04 04:35:12;;;;;;;6.07;3.60;;;6.20;83.10;;;;;;5045517;28;20203;-76
2023/01/04 04:37:38;;;;;;;6.47;3.63;;;6.20;83.30;;;;;;5040190;28;20283;-76
2023/01/04 04:40:05;;;;;;;6.10;3.13;;;6.20;83.40;;;;;;5029278;28;20553;-76
2023/01/04 04:42:30;;;;;;;6.70;4.03;;;6.20;83.30;;;;;;5025136;28;20189;-76
2023/01/04 04:44:56;;;;;;;7.67;3.20;;;6.20;83.30;;;;;;5025340;28;20478;-77
2023/01/04 04:47:21;;;;;;;5.30;2.93;;;6.20;83.30;;;;;;5029588;28;20291;-76
2023/01/04 04:49:47;;;;;;;4.27;2.60;;;6.20;83.10;;;;;;5025667;28;20264;-74
2023/01/04 04:52:13;;;;;;;4.93;2.83;;;6.20;83.10;;;;;;5025215;28;20271;-76
2023/01/04 04:54:38;;;;;;;5.30;3.30;;;6.20;83.10;;;;;;5024594;28;20205;-77
2023/01/04 04:57:04;;;;;;;4.43;2.80;;;6.30;83.00;;;;;;5022591;28;20550;-77
2023/01/04 04:59:29;;;;;;;5.03;2.83;;;6.30;83.10;;;;;;5030248;28;20668;-74
2023/01/04 05:01:55;;;;;;;5.83;2.90;;;6.40;82.80;;;;;;5028771;28;20183;-76
2023/01/04 05:04:20;;;;;;;4.00;2.63;;;6.40;82.40;;;;;;5021033;28;20209;-74
2023/01/04 05:06:48;;;;;;;7.07;2.73;;;6.40;82.20;;;;;;5029040;28;20182;-76
2023/01/04 05:09:14;;;;;;;3.67;2.57;;;6.50;82.20;;;;;;5028423;28;20181;-75
2023/01/04 05:14:25;;;;;;;5.57;2.67;;;6.60;81.90;;;;;;5025366;28;20497;-75
2023/01/04 05:16:51;;;;;;;3.40;2.10;;;6.60;82.10;;;;;;5024789;28;20985;-74
2023/01/04 05:19:16;;;;;;;4.90;2.93;;;6.70;82.10;;;;;;5029365;28;20423;-75
2023/01/04 05:21:42;;;;;;;3.90;2.67;;;6.70;81.90;;;;;;5023639;28;20186;-76
2023/01/04 05:24:10;;;;;;;5.23;2.87;;;6.80;82.10;;;;;;5026494;28;20208;-74
2023/01/04 05:26:36;;;;;;;4.87;2.90;;;6.80;82.10;;;;;;5023839;28;20189;-75
2023/01/04 05:29:02;;;;;;;4.23;2.67;;;6.70;82.40;;;;;;5027219;28;20427;-76
2023/01/04 05:31:28;;;;;;;5.03;2.70;;;6.80;82.50;;;;;;5032452;28;20578;-75
2023/01/04 05:33:53;;;;;;;5.00;3.03;;;6.80;82.70;;;;;;5029513;28;20185;-75
2023/01/04 05:36:19;;;;;;;5.70;2.70;;;6.80;82.50;;;;;;5024274;28;20697;-72
2023/01/04 05:38:44;;;;;;;3.43;2.63;;;6.80;82.50;;;;;;5025937;28;20523;-73
2023/01/04 05:43:54;;;;;;;3.83;2.63;;;6.90;81.90;;;;;;5028263;28;20275;-75
2023/01/04 05:46:20;;;;;;;4.00;2.90;;;6.90;81.80;;;;;;5027927;28;20463;-77
2023/01/04 05:48:46;;;;;;;5.43;2.40;;;6.90;81.70;;;;;;5032196;28;20922;-74
2023/01/04 05:51:11;;;;;;;6.33;2.60;;;7.00;81.80;;;;;;5032294;28;20189;-75
2023/01/04 05:53:37;;;;;;;4.33;2.27;;;7.00;81.70;;;;;;5034053;28;20227;-75
2023/01/04 05:56:02;;;;;;;5.87;3.80;;;7.00;81.70;;;;;;5038543;28;20208;-75
2023/01/04 05:58:28;;;;;;;3.80;2.40;;;7.00;81.70;;;;;;5040552;28;20197;-75
2023/01/04 06:00:54;;;;;;;4.90;2.73;;;7.00;81.80;;;;;;5041341;28;20243;-75
2023/01/04 06:03:19;;;;;;;5.83;3.17;;;7.10;81.70;;;;;;5035972;28;20205;-77
2023/01/04 06:05:49;;;;;;;6.00;2.97;;;7.10;81.70;;;;;;5028550;28;20610;-77
2023/01/04 06:08:15;;;;;;;4.60;2.73;;;7.00;81.80;;;;;;5027247;28;20188;-76
2023/01/04 06:10:40;;;;;;;4.60;2.77;;;7.10;81.90;;;;;;5029722;28;20416;-75
2023/01/04 06:13:06;;;;;;;5.17;2.90;;;7.10;81.90;;;;;;5031085;28;20189;-76
2023/01/04 06:15:32;;;;;;;6.13;2.97;;;7.10;81.80;;;;;;5027537;28;20683;-76
2023/01/04 06:17:57;;;;;;;3.50;2.43;;;7.10;81.80;;;;;;5029980;28;20197;-78
2023/01/04 06:20:23;;;;;;;4.23;2.67;;;7.10;81.90;;;;;;5032893;28;20193;-76
2023/01/04 06:22:48;;;;;;;4.17;2.47;;;7.20;81.90;;;;;;5028369;28;20300;-76
2023/01/04 06:25:14;;;;;;;5.40;2.70;;;7.10;81.80;;;;;;5029974;28;20220;-76
2023/01/04 06:27:40;;;;;;;3.43;2.60;;;7.10;81.80;;;;;;5027677;28;20278;-74
2023/01/04 06:30:06;;;;;;;4.80;2.70;;;7.20;81.80;;;;;;5028099;28;20421;-74
2023/01/04 06:32:31;;;;;;;4.30;2.37;;;7.20;81.80;;;;;;5035825;28;20205;-77
2023/01/04 06:34:57;;;;;;;4.37;2.63;;;7.20;81.70;;;;;;5022776;28;20492;-74
2023/01/04 06:37:23;;;;;;;5.37;2.70;;;7.20;81.70;;;;;;5036956;28;20201;-76
2023/01/04 06:39:48;;;;;;;5.43;2.77;;;7.20;81.50;;;;;;5036348;28;20185;-76
2023/01/04 06:44:58;;;;;;;5.83;2.80;;;7.20;81.50;;;;;;5022242;28;20385;-76
2023/01/04 06:47:24;;;;;;;5.53;2.80;;;7.20;81.40;;;;;;5027035;28;20514;-75
2023/01/04 06:49:49;;;;;;;5.40;2.67;;;7.20;81.50;;;;;;5028655;28;20182;-76
2023/01/04 06:52:15;;;;;;;4.40;2.20;;;7.20;81.40;;;;;;5036437;28;20533;-79
2023/01/04 06:54:40;;;;;;;5.07;2.90;;;7.20;81.10;;;;;;5027119;28;20209;-77
2023/01/04 06:57:06;;;;;;;6.33;2.57;;;7.30;81.10;;;;;;5025703;28;20209;-76
2023/01/04 06:59:31;;;;;;;3.97;2.43;;;7.30;80.60;;;;;;5029589;28;20185;-75
2023/01/04 07:01:57;;;;;;;3.90;2.70;;;7.30;80.60;;;;;;5032257;28;20182;-76
2023/01/04 07:04:22;;;;;;;3.97;2.33;;;7.30;80.80;;;;;;5026475;28;20609;-76
2023/01/04 07:06:48;;;;;;;3.90;2.40;;;7.40;80.50;;;;;;5032052;28;20173;-76
2023/01/04 07:09:13;;;;;;;3.90;2.67;;;7.40;80.20;;;;;;5032909;28;20253;-77
2023/01/04 07:11:39;;;;;;;6.37;3.07;;;7.40;80.30;;;;;;5033006;28;20181;-76
2023/01/04 07:14:05;;;;;;;5.57;2.87;;;7.40;79.90;;;;;;5030972;28;20209;-76
2023/01/04 07:16:30;;;;;;;4.63;2.03;;;7.40;80.00;;;;;;5031912;28;20185;-76
2023/01/04 07:18:56;;;;;;;4.77;2.43;;;7.40;80.00;;;;;;5032698;28;20177;-76
2023/01/04 07:21:21;;;;;;;4.93;2.40;;;7.40;79.90;;;;;;5028568;28;20704;-75
2023/01/04 07:23:47;;;;;;;5.10;2.93;;;7.40;79.70;;;;;;5032325;28;20238;-76
2023/01/04 07:26:12;;;;;;;7.33;2.30;;;7.40;79.90;;;;;;5032464;28;20197;-77
2023/01/04 07:31:22;;;;;;;2.33;1.70;;;7.50;79.50;;;;;;5032166;28;20192;-77
2023/01/04 07:33:49;;;;;;;4.70;2.63;;;7.50;79.70;;;;;;5037974;28;20428;-76
2023/01/04 07:36:15;;;;;;;3.77;2.13;;;7.50;79.90;;;;;;5040628;28;20224;-76
2023/01/04 07:38:42;;;;;;;4.17;1.80;;;7.40;80.20;;;;;;5027127;28;20433;-75
2023/01/04 07:41:08;;;;;;;4.03;2.03;;;7.40;80.80;;;;;;5033941;28;20192;-76
2023/01/04 07:43:33;;;;;;;5.40;2.37;;;7.30;81.80;;;;;;5026128;28;20909;-76
2023/01/04 07:45:59;;;;;;;3.23;2.00;;;7.20;82.40;;;;;;5029554;28;20212;-74
2023/01/04 07:48:27;;;;;;;4.50;2.10;;;7.20;83.30;;;;;;5026954;28;20196;-76
2023/01/04 07:50:53;;;;;;;3.30;2.17;;;7.10;83.60;;;;;;5024591;28;20865;-75
2023/01/04 07:53:18;;;;;;;5.43;2.27;;;7.00;84.60;;;;;;5026090;28;20456;-76
2023/01/04 07:55:44;;;;;;;2.60;1.97;;;6.90;85.00;;;;;;5019100;28;20672;-76
2023/01/04 07:58:09;;;;;;;5.33;2.10;;;6.80;85.60;;;;;;5028335;28;20668;-76
2023/01/04 08:00:35;;;;;;;6.57;2.80;;;6.80;86.20;;;;;;5026440;28;20265;-76
2023/01/04 08:03:00;;;;;;;7.40;2.30;;;6.80;86.50;;;;;;5022226;28;20248;-75
2023/01/04 08:05:26;;;;;;;4.93;2.00;;;6.80;86.80;;;;;;5017253;28;20213;-75
2023/01/04 08:07:52;;;;;;;3.67;2.20;;;6.70;87.00;;;;;;5027976;28;20288;-75
2023/01/04 08:10:17;;;;;;;3.63;2.00;;;6.70;86.90;;;;;;5027448;28;20185;-75
2023/01/04 08:12:43;;;;;;;3.93;2.00;;;6.70;87.00;;;;;;5027567;28;20185;-75
2023/01/04 08:15:09;;;;;;;9.27;2.30;;;6.70;87.30;;;;;;5027390;28;20281;-76
2023/01/04 08:17:34;;;;;;;3.57;2.00;;;6.70;86.80;;;;;;5030733;28;20283;-76
2023/01/04 08:20:00;;;;;;;2.07;1.70;;;6.80;86.50;;;;;;5029608;28;20428;-75
2023/01/04 08:22:26;;;;;;;2.70;1.40;;;6.80;86.30;;;;;;5031672;28;20647;-75
2023/01/04 08:24:51;;;;;;;2.70;1.63;;;6.90;86.00;;;;;;5029198;28;20221;-75
2023/01/04 08:27:17;;;;;;;2.00;1.60;;;6.90;86.30;;;;;;5030124;28;20272;-75
2023/01/04 08:29:42;;;;;;;5.97;2.07;;;6.90;86.50;;;;;;5027791;28;20189;-75
2023/01/04 08:32:08;;;;;;;2.93;1.30;;;6.90;86.50;;;;;;5031618;28;20181;-75
2023/01/04 08:34:33;;;;;;;5.27;1.77;;;6.90;86.50;;;;;;5024320;28;20707;-74
2023/01/04 08:36:59;;;;;;;3.03;1.93;;;6.90;86.00;;;;;;5030172;28;20189;-75
2023/01/04 08:39:28;;;;;;;1.70;1.43;;;6.90;86.30;;;;;;5026648;28;20201;-75
2023/01/04 08:41:53;;;;;;;2.90;1.90;;;6.90;86.30;;;;;;5027610;28;20177;-75
2023/01/04 08:44:24;;;;;;;2.60;1.47;;;7.00;85.90;;;;;;5021309;28;20548;-75
2023/01/04 08:46:50;;;;;;;2.13;1.50;;;7.00;85.50;;;;;;5027853;28;20602;-75
2023/01/04 08:49:17;;;;;;;1.80;1.40;;;7.10;85.30;;;;;;5046239;28;20433;-75
2023/01/04 08:51:43;;;;;;;2.10;1.50;;;7.10;85.00;;;;;;5039202;28;20418;-75
2023/01/04 08:54:09;;;;;;;4.30;1.70;;;7.20;84.00;;;;;;5042619;28;20424;-75
2023/01/04 08:56:35;;;;;;;2.30;1.60;;;7.20;83.40;;;;;;5031903;28;20459;-76
2023/01/04 08:59:01;;;;;;;4.00;1.70;;;7.30;83.30;;;;;;5036777;28;20455;-74
2023/01/04 09:01:26;;;;;;;3.97;1.83;;;7.30;82.80;;;;;;5038074;28;20420;-75
2023/01/04 09:03:54;;;;;;;3.37;1.73;;;7.40;81.90;;;;;;5039311;28;20217;-75
2023/01/04 09:06:20;;;;;;;9.73;3.30;;;7.40;81.90;;;;;;5033415;28;20240;-75
2023/01/04 09:08:45;;;;;;;5.73;1.80;;;7.50;80.90;;;;;;5033169;28;20854;-75
2023/01/04 09:11:14;;;;;;;4.17;1.70;;;7.50;81.10;;;;;;5031778;28;20273;-74
2023/01/04 09:13:40;;;;;;;1.80;1.30;;;7.60;80.20;;;;;;5032768;28;20590;-75
2023/01/04 09:16:12;;;;;;;2.83;1.37;;;7.60;80.20;;;;;;5032315;28;20554;-74
2023/01/04 09:18:38;;;;;;;2.30;1.40;;;7.70;79.20;;;;;;5031071;28;20522;-75
2023/01/04 09:21:12;;;;;;;2.93;1.60;;;7.80;79.00;;;;;;5033132;28;20977;-73
2023/01/04 09:23:38;;;;;;;4.60;2.10;;;7.80;79.20;;;;;;5032872;28;20209;-77
2023/01/04 09:26:08;;;;;;;2.40;1.50;;;7.80;79.00;;;;;;5030615;28;20858;-75
2023/01/04 09:28:34;;;;;;;3.40;1.60;;;7.80;79.20;;;;;;5028546;28;20416;-75
2023/01/04 09:31:12;;;;;;;3.23;1.97;;;7.90;78.70;;;;;;5033857;28;20462;-74
2023/01/04 09:33:38;;;;;;;4.00;1.83;;;8.00;78.70;;;;;;5026906;28;20447;-75
2023/01/04 09:36:06;;;;;;;2.93;1.60;;;8.00;78.30;;;;;;5029595;28;20459;-76
2023/01/04 09:38:32;;;;;;;3.50;1.80;;;8.00;78.40;;;;;;5026194;28;20247;-75
2023/01/04 09:41:13;;;;;;;1.87;1.23;;;8.00;78.30;;;;;;5032238;28;20530;-75
2023/01/04 09:44:04;;;;;;;2.80;1.80;;;8.00;78.30;;;;;;5027978;28;20545;-75
2023/01/04 09:46:38;;;;;;;1.77;1.30;;;8.00;78.30;;;;;;5026029;28;20423;-76
2023/01/04 09:49:15;;;;;;;4.47;1.70;;;8.10;78.30;;;;;;5026115;28;20418;-75
2023/01/04 09:52:02;;;;;;;3.10;1.30;;;8.20;77.80;;;;;;5026524;28;20404;-74
2023/01/04 09:55:02;;;;;;;2.67;1.50;;;8.20;77.80;;;;;;5024749;28;20451;-74
2023/01/04 09:57:31;;;;;;;3.50;1.20;;;8.30;77.40;;;;;;5033386;28;20446;-75
2023/01/04 10:00:11;;;;;;;3.53;1.50;;;8.30;77.30;;;;;;5030532;28;20424;-75
2023/01/04 10:02:45;;;;;;;4.80;1.57;;;8.30;77.40;;;;;;5043457;28;20432;-75
2023/01/04 10:05:20;;;;;;;3.40;1.80;;;8.40;77.70;;;;;;5041122;28;20840;-75
2023/01/04 10:07:46;;;;;;;2.97;1.53;;;8.40;77.40;;;;;;5038899;28;20755;-74
2023/01/04 10:10:18;;;;;;;2.77;1.60;;;8.50;77.30;;;;;;5045578;28;20463;-74
2023/01/04 10:13:28;;;;;;;2.33;1.30;;;8.50;77.00;;;;;;5042478;28;20181;-75
2023/01/04 10:16:14;;;;;;;2.30;1.40;;;8.50;77.00;;;;;;5031110;28;20523;-75
2023/01/04 10:19:10;;;;;;;1.40;1.10;;;8.50;76.70;;;;;;5045410;28;20411;-75
2023/01/04 10:21:52;;;;;;;1.90;1.30;;;8.60;77.00;;;;;;5039565;28;20593;-75
2023/01/04 10:24:40;;;;;;;1.63;1.30;;;8.60;77.10;;;;;;5029564;28;20495;-75
2023/01/04 10:27:13;;;;;;;22.60;2.23;;;8.60;77.10;;;;;;5027863;28;20408;-75
2023/01/04 10:29:46;;;;;;;3.90;1.73;;;8.60;77.00;;;;;;5029586;28;20416;-75
2023/01/04 10:32:22;;;;;;;2.40;1.43;;;8.60;77.00;;;;;;5035804;28;20427;-75
2023/01/04 10:34:48;;;;;;;2.10;1.40;;;8.70;76.80;;;;;;5030792;28;20473;-74
2023/01/04 10:37:23;;;;;;;1.80;1.57;;;8.70;76.80;;;;;;5035338;28;20424;-75
2023/01/04 10:39:51;;;;;;;2.73;1.50;;;8.70;77.00;;;;;;5038769;28;20424;-74
2023/01/04 10:42:20;;;;;;;4.03;1.30;;;8.70;76.70;;;;;;5036582;28;20432;-75
2023/01/04 10:44:51;;;;;;;1.83;1.40;;;8.80;76.70;;;;;;5033935;28;20477;-74
2023/01/04 10:47:26;;;;;;;5.73;1.60;;;8.80;76.70;;;;;;5030942;28;20419;-75
2023/01/04 10:50:15;;;;;;;2.60;1.40;;;8.90;76.40;;;;;;5028450;28;20414;-75
2023/01/04 10:52:51;;;;;;;2.60;1.47;;;9.00;76.20;;;;;;5008258;28;20836;-74
2023/01/04 10:55:35;;;;;;;3.57;1.90;;;9.00;75.90;;;;;;5008899;28;20475;-76
2023/01/04 10:58:40;;;;;;;6.43;3.90;;;9.10;75.70;;;;;;5005791;28;20449;-75
2023/01/04 11:01:23;;;;;;;4.47;3.00;;;9.10;75.70;;;;;;4912355;29;20517;-74
2023/01/04 11:03:56;;;;;;;6.23;3.10;;;9.20;75.50;;;;;;4994532;28;20552;-75
2023/01/04 11:06:47;;;;;;;2.67;1.80;;;9.20;75.40;;;;;;5008372;28;20461;-74
2023/01/04 11:09:19;;;;;;;3.50;1.40;;;9.20;75.20;;;;;;5005255;28;20812;-75
2023/01/04 11:11:46;;;;;;;4.87;1.10;;;9.30;75.10;;;;;;5009562;28;20413;-75
2023/01/04 11:14:13;;;;;;;2.83;1.53;;;9.30;74.90;;;;;;4987241;28;20432;-75
2023/01/04 11:16:42;;;;;;;1.80;1.10;;;9.30;75.10;;;;;;4992288;28;20528;-74
2023/01/04 11:19:09;;;;;;;1.73;1.30;;;9.40;74.90;;;;;;5009631;28;20431;-75
2023/01/04 11:21:49;;;;;;;3.13;1.10;;;9.30;75.10;;;;;;5005898;28;20429;-75
2023/01/04 11:24:15;;;;;;;2.20;1.23;;;9.30;75.20;;;;;;5016278;28;20553;-77
2023/01/04 11:26:44;;;;;;;1.90;1.23;;;9.50;75.10;;;;;;5014863;28;20432;-73
2023/01/04 11:29:32;;;;;;;1.80;1.10;;;9.50;74.90;;;;;;5016423;28;20420;-75
2023/01/04 11:32:16;;;;;;;3.90;1.20;;;9.60;74.90;;;;;;5030841;28;20803;-75
2023/01/04 11:34:51;;;;;;;2.30;1.23;;;9.60;74.80;;;;;;5026265;28;20453;-76
2023/01/04 11:37:27;;;;;;;1.77;1.40;;;9.60;74.80;;;;;;5028045;28;21012;-76
2023/01/04 11:40:15;;;;;;;1.47;1.20;;;9.60;74.80;;;;;;5030716;28;20420;-75
2023/01/04 11:42:42;;;;;;;3.90;1.40;;;9.70;74.50;;;;;;5025452;28;20456;-75
2023/01/04 11:45:25;;;;;;;1.80;1.40;;;9.70;74.30;;;;;;5023413;28;20555;-76
2023/01/04 11:47:56;;;;;;;2.20;1.10;;;9.70;74.30;;;;;;5026990;28;20424;-75
2023/01/04 11:50:34;;;;;;;2.20;1.40;;;9.70;74.20;;;;;;5029925;28;20423;-75
2023/01/04 11:53:00;;;;;;;2.07;1.20;;;9.70;74.80;;;;;;5029411;28;20536;-75
2023/01/04 11:55:28;;;;;;;1.63;1.10;;;9.70;74.80;;;;;;5020016;28;20906;-76
2023/01/04 11:58:12;;;;;;;3.47;1.60;;;9.80;74.80;;;;;;5029394;28;20281;-76
2023/01/04 12:00:52;;;;;;;2.33;1.40;;;9.80;74.80;;;;;;5021345;28;20416;-75
2023/01/04 12:03:26;;;;;;;4.70;1.60;;;9.90;74.90;;;;;;5028023;28;20422;-76
2023/01/04 12:05:51;;;;;;;1.93;1.40;;;9.90;74.80;;;;;;5022060;28;20459;-74
2023/01/04 12:08:23;;;;;;;2.10;1.30;;;9.90;74.80;;;;;;5027666;28;20782;-75
2023/01/04 12:10:49;;;;;;;2.23;1.40;;;9.90;75.10;;;;;;5033434;28;20181;-75
2023/01/04 12:13:15;;;;;;;3.07;1.40;;;9.90;75.40;;;;;;5028975;28;20416;-74
2023/01/04 12:16:25;;;;;;;2.60;1.57;;;9.90;75.50;;;;;;5022635;28;20259;-74
2023/01/04 12:18:52;;;;;;;2.07;1.47;;;9.90;75.50;;;;;;5026784;28;20950;-75
2023/01/04 12:21:23;;;;;;;2.37;1.67;;;9.90;75.70;;;;;;5033060;28;20428;-73
2023/01/04 12:23:50;;;;;;;3.80;2.07;;;10.00;75.80;;;;;;5023868;28;20494;-74
2023/01/04 12:26:17;;;;;;;2.67;1.30;;;10.00;75.90;;;;;;5023565;28;20974;-75
2023/01/04 12:28:46;;;;;;;3.47;1.87;;;10.00;75.90;;;;;;5030585;28;20765;-75
2023/01/04 12:31:18;;;;;;;1.83;1.40;;;10.10;76.10;;;;;;5024240;28;20470;-75
2023/01/04 12:34:12;;;;;;;2.07;1.40;;;10.10;75.90;;;;;;5029227;28;20442;-74
2023/01/04 12:36:37;;;;;;;2.80;1.20;;;10.20;75.90;;;;;;5027272;28;20538;-75
2023/01/04 12:39:14;;;;;;;2.53;1.13;;;10.20;75.90;;;;;;5034383;28;20424;-75
2023/01/04 12:41:40;;;;;;;2.20;1.10;;;10.30;75.90;;;;;;5025717;28;20184;-75
2023/01/04 12:44:42;;;;;;;2.00;1.17;;;10.30;75.90;;;;;;5031241;28;20469;-76
2023/01/04 12:50:06;;;;;;;3.17;1.50;;;10.40;75.70;;;;;;5035742;28;20453;-75
2023/01/04 12:52:31;;;;;;;1.60;1.33;;;10.50;75.50;;;;;;5034141;28;20412;-75
2023/01/04 12:55:00;;;;;;;4.43;1.40;;;10.50;75.70;;;;;;5022068;28;20510;-75
2023/01/04 12:57:36;;;;;;;1.40;1.20;;;10.50;75.70;;;;;;5028948;28;20560;-75
2023/01/04 13:00:12;;;;;;;4.33;2.23;;;10.50;75.80;;;;;;5023138;28;20454;-77
2023/01/04 13:03:13;;;;;;;2.10;1.40;;;10.60;75.80;;;;;;5026033;28;20485;-76
2023/01/04 13:05:40;;;;;;;2.10;1.40;;;10.60;75.50;;;;;;5017349;28;21476;-76
2023/01/04 13:08:13;;;;;;;2.33;1.33;;;10.60;75.50;;;;;;5027274;28;20485;-74
2023/01/04 13:10:42;;;;;;;4.87;1.10;;;10.60;75.70;;;;;;5031018;28;20431;-76
2023/01/04 13:13:45;;;;;;;3.00;1.20;;;10.60;75.70;;;;;;5031161;28;20428;-76
2023/01/04 13:16:10;;;;;;;2.30;1.13;;;10.60;75.70;;;;;;5025918;28;20459;-76
2023/01/04 13:18:41;;;;;;;4.60;1.57;;;10.60;75.80;;;;;;5029827;28;20420;-75
2023/01/04 13:21:25;;;;;;;1.80;1.13;;;10.70;75.80;;;;;;5032403;28;20668;-74
2023/01/04 13:24:14;;;;;;;2.03;1.20;;;10.80;75.70;;;;;;5030032;28;20877;-76
2023/01/04 13:26:44;;;;;;;3.20;1.47;;;10.70;75.70;;;;;;5036284;28;20435;-75
2023/01/04 13:29:25;;;;;;;2.83;1.20;;;10.80;75.80;;;;;;5034962;28;20424;-74
2023/01/04 13:31:57;;;;;;;4.40;1.60;;;10.80;75.70;;;;;;5030948;28;20415;-74
2023/01/04 13:34:31;;;;;;;3.37;1.33;;;10.80;75.70;;;;;;5026809;28;21144;-76
2023/01/04 13:37:18;;;;;;;2.40;1.20;;;10.80;75.70;;;;;;5029671;28;20420;-75
2023/01/04 13:39:51;;;;;;;2.40;1.30;;;10.80;75.40;;;;;;5026562;28;21312;-75
2023/01/04 13:42:36;;;;;;;3.00;1.53;;;10.80;75.70;;;;;;5027029;28;20482;-75
2023/01/04 13:45:13;;;;;;;2.17;1.20;;;10.80;75.80;;;;;;5026177;28;20475;-76
2023/01/04 13:47:41;;;;;;;1.73;1.10;;;10.90;75.80;;;;;;5021873;28;20427;-75
2023/01/04 13:50:20;;;;;;;3.80;1.00;;;10.90;75.80;;;;;;5026370;28;20782;-76
2023/01/04 13:52:45;;;;;;;2.40;1.30;;;10.90;75.80;;;;;;5025042;28;20407;-75
2023/01/04 13:55:23;;;;;;;1.73;1.00;;;10.90;75.50;;;;;;5025110;28;20509;-76
2023/01/04 13:57:56;;;;;;;3.00;1.20;;;10.90;75.80;;;;;;5023975;28;20265;-76
2023/01/04 14:00:23;;;;;;;7.40;1.07;;;10.90;75.80;;;;;;5029812;28;20428;-76
2023/01/04 14:03:12;;;;;;;3.07;1.30;;;11.00;75.50;;;;;;5031142;28;20466;-76
2023/01/04 14:05:45;;;;;;;2.00;1.20;;;11.00;75.50;;;;;;5025452;28;20932;-74
2023/01/04 14:08:11;;;;;;;2.13;0.90;;;11.00;75.40;;;;;;5029534;28;20412;-77